• Join FlightAware (Why Join?)
  • Login
  • US Flag 
03:44PM EDT


 

Airport Tracker/Info


-or-


 

Live Flight TrackerFlight Track Log ✈ ELT222 ✈ 28-Jul-2013 ✈ KAPA - KFCM

Flight Track Log - Related Links

Times and Time Zones

All times are in EDT time to prevent confusion due to time zone crossing. See the ELT222 flight status page for this flight to view local times or setup timezone preferences in your user account.

Time Position Orientation Groundspeed Altitude Reporting Facility
EDT Latitude Longitude Course Direction KTS MPH feet Rate Location/Type
09:51PM 39.5667 -104.7333 49° Northeast 241 277 10,700  Level Denver TRACON
09:52PM 39.6267 -104.6978 25° Northeast 250 288 12,700 2,100 Climbing Denver Center
09:53PM 39.7014 -104.6619 20° North 266 306 14,900 1,860 Climbing Denver Center
09:54PM 39.7775 -104.6236 21° North 296 341 16,600 1,440 Climbing Denver Center
09:55PM 39.8681 -104.5803 20° North 324 373 17,900 1,320 Climbing Denver Center
09:56PM 39.9553 -104.5394 20° North 333 383 19,400 1,500 Climbing Denver Center
09:57PM 40.0547 -104.4908 21° North 354 407 21,000 1,440 Climbing Denver Center
09:58PM 40.1489 -104.4439 21° North 362 417 22,400 1,320 Climbing Denver Center
09:59PM 40.2536 -104.3942 20° North 373 429 23,800 1,320 Climbing Denver Center
10:00PM 40.3414 -104.3492 21° North 372 428 25,200 1,200 Climbing Denver Center
10:01PM 40.4386 -104.3008 21° North 373 429 26,400 960 Climbing Denver Center
10:02PM 40.5414 -104.2514 20° North 389 448 27,300 960 Climbing Denver Center
10:03PM 40.6483 -104.1408 38° Northeast 412 474 28,400 900 Climbing Denver Center
10:04PM 40.7331 -104.0350 43° Northeast 405 466 29,200 720 Climbing Denver Center
10:05PM 40.8206 -103.9250 44° Northeast 434 499 30,000 720 Climbing Denver Center
10:06PM 40.9078 -103.8122 44° Northeast 440 506 30,800 780 Climbing Denver Center
10:07PM 40.9917 -103.6656 53° Northeast 454 522 31,700 780 Climbing Denver Center
10:08PM 41.0572 -103.5325 57° Northeast 453 521 32,400 840 Climbing Denver Center
10:09PM 41.1356 -103.3761 56° Northeast 457 526 33,500 960 Climbing Denver Center
10:10PM 41.2006 -103.2450 57° Northeast 447 514 34,500 960 Climbing Denver Center
10:11PM 41.2764 -103.0897 57° Northeast 450 518 35,500 900 Climbing Denver Center
10:12PM 41.3408 -102.9581 57° Northeast 446 513 36,400 720 Climbing Denver Center
10:13PM 41.4042 -102.8267 57° Northeast 443 510 37,000 240 Climbing Denver Center
10:14PM 41.4817 -102.6678 57° Northeast 454 522 37,000  Level Denver Center
10:15PM 41.5519 -102.5247 57° Northeast 473 544 37,000  Level Denver Center
10:17PM 41.6347 -102.3525 57° Northeast 487 560 37,000  Level Denver Center
10:18PM 41.7064 -102.2022 57° Northeast 496 571 37,000  Level Denver Center
10:19PM 41.7894 -102.0250 58° Northeast 501 577 37,000  Level Denver Center
10:20PM 41.8628 -101.8717 57° Northeast 508 585 37,000  Level Denver Center
10:21PM 41.9356 -101.7183 57° Northeast 508 585 37,000  Level Denver Center
10:22PM 42.0194 -101.5381 58° Northeast 508 585 37,000  Level Denver Center
10:23PM 42.0911 -101.3833 58° Northeast 508 585 37,000  Level Denver Center
10:24PM 42.1758 -101.2019 58° Northeast 511 588 37,000  Level Denver Center
10:25PM 42.2456 -101.0469 59° Northeast 506 582 37,000  Level Denver Center
10:26PM 42.3278 -100.8669 58° Northeast 504 580 37,000  Level Denver Center
10:27PM 42.3992 -100.7119 58° Northeast 506 582 37,000  Level Denver Center
10:28PM 42.4756 -100.5428 58° Northeast 504 580 37,000  Level Minneapolis Center
10:29PM 42.5489 -100.3814 58° Northeast 503 579 37,000  Level Minneapolis Center
10:30PM 42.6194 -100.2217 59° Northeast 503 579 37,000  Level Denver Center
10:31PM 42.7003 -100.0378 59° Northeast 506 582 37,000  Level Denver Center
10:32PM 42.7658 -99.8886 59° Northeast 500 575 37,000  Level Denver Center
10:33PM 42.8386 -99.7239 59° Northeast 505 581 37,000  Level Denver Center
10:34PM 42.9244 -99.5300 59° Northeast 504 580 37,000  Level Minneapolis Center
10:35PM 42.9961 -99.3633 60° Northeast 506 582 37,000  Level Minneapolis Center
10:36PM 43.0678 -99.1978 59° Northeast 507 583 37,000  Level Minneapolis Center
10:37PM 43.1375 -99.0314 60° Northeast 508 585 37,000  Level Minneapolis Center
10:38PM 43.2075 -98.8722 59° Northeast 498 573 37,000  Level Minneapolis Center
10:39PM 43.2767 -98.7053 60° Northeast 502 578 37,000  Level Minneapolis Center
10:40PM 43.3469 -98.5408 60° Northeast 503 579 37,000  Level Minneapolis Center
10:41PM 43.4303 -98.3403 60° Northeast 504 580 37,000  Level Minneapolis Center
10:42PM 43.4997 -98.1758 60° Northeast 501 577 37,000  Level Minneapolis Center
10:43PM 43.5819 -97.9758 60° Northeast 500 575 37,000  Level Minneapolis Center
10:44PM 43.6506 -97.8086 60° Northeast 501 577 37,000  Level Minneapolis Center
10:45PM 43.7181 -97.6433 60° Northeast 497 572 37,000  Level Minneapolis Center
10:47PM 43.7867 -97.4772 60° Northeast 499 574 37,000  Level Minneapolis Center
10:48PM 43.8533 -97.3117 61° Northeast 496 571 37,000  Level Minneapolis Center
10:49PM 43.9211 -97.1439 61° Northeast 498 573 37,000  Level Minneapolis Center
10:50PM 43.9875 -96.9769 61° Northeast 496 571 37,000  Level Minneapolis Center
10:51PM 44.0539 -96.8103 61° Northeast 495 570 37,000  Level Minneapolis Center
10:52PM 44.1208 -96.6408 61° Northeast 498 573 37,000  Level Minneapolis Center
10:53PM 44.2003 -96.4392 61° Northeast 495 570 37,000  Level Minneapolis Center
10:54PM 44.2658 -96.2750 61° Northeast 495 570 37,000  Level Minneapolis Center
10:55PM 44.3244 -96.1231 62° Northeast 496 571 37,000  Level Minneapolis Center
10:56PM 44.3878 -95.9581 62° Northeast 483 556 37,000 -780 Level Minneapolis Center
10:57PM 44.4617 -95.7658 62° Northeast 467 537 35,500 -2,220 Descending Minneapolis Center
10:58PM 44.5183 -95.6167 62° Northeast 440 506 32,600 -2,820 Descending Minneapolis Center
10:59PM 44.5789 -95.4586 62° Northeast 459 528 29,800 -2,820 Descending Minneapolis Center
11:00PM 44.6203 -95.2864 71° East 465 535 26,900 -2,880 Descending Minneapolis Center
11:01PM 44.6556 -95.1122 74° East 466 536 24,000 -2,760 Descending Minneapolis Center
11:02PM 44.6906 -94.9469 73° East 450 518 21,300 -2,640 Descending Minneapolis Center
11:03PM 44.7244 -94.7911 73° East 427 491 18,700 -2,220 Descending Minneapolis Center
11:04PM 44.7486 -94.6728 74° East 407 468 16,800 -2,220 Descending Minneapolis Center
11:05PM 44.7811 -94.5136 74° East 385 443 14,200 -2,580 Descending Minneapolis Center
11:06PM 44.8142 -94.3561 73° East 343 395 11,600 -2,220 Descending Minneapolis Center
11:07PM 44.8347 -94.2456 75° East 295 339 9,800 -1,680 Descending Minneapolis Center
11:08PM 44.8381 -94.1364 87° East 282 325 8,200 -1,560 Descending Minneapolis Center
11:09PM 44.8386 -94.0292 90° East 273 314 6,700 -1,500 Descending Minneapolis Center
11:10PM 44.8383 -93.9244 90° East 269 310 5,200 -1,080 Descending Minneapolis Center
11:11PM 44.8386 -93.8281 90° East 248 285 4,600 -660 Descending Minneapolis Center
11:12PM 44.8386 -93.7400 90° East 226 260 3,900 -600 Descending Minneapolis Center
11:13PM 44.8394 -93.6597 89° East 209 241 3,400 -540 Descending Minneapolis Center
11:15PM 44.8275 -93.4586 97° East  Level Estimated
11:22PM 44.8275 -93.4586 97° East  Level Estimated
11:23PM 44.8275 -93.4586 97° East  Level Estimated
11:24PM 44.8275 -93.4586 97° East  Level Estimated
11:25PM 44.8275 -93.4586 97° East  Level Estimated
11:26PM 44.8275 -93.4586 97° East  Level Estimated
11:27PM 44.8275 -93.4586 97° East  Level Estimated
11:28PM 44.8275 -93.4586 97° East  Level Estimated
11:29PM 44.8275 -93.4586 97° East  Level Estimated